Time;durP1;ratioP1;P1;durP2;ratioP2;P2;SDS_P1;SDS_P2;PMS_P1;PMS_P2;Temp;Humidity;BMP_temperature;BMP_pressure;BME280_temperature;BME280_humidity;BME280_pressure;Samples;Min_cycle;Max_cycle;Signal;HPM_P1;HPM_P2
2023/03/13 00:00:18;;;;;;;46.65;11.00;;;7.40;99.90;;;;;;5040601;28;20562;-75
2023/03/13 00:02:44;;;;;;;51.28;12.63;;;7.30;99.90;;;;;;5040717;28;20081;-73
2023/03/13 00:05:10;;;;;;;52.35;12.18;;;7.30;99.90;;;;;;5039904;28;20030;-73
2023/03/13 00:07:36;;;;;;;48.75;12.80;;;7.30;99.90;;;;;;5041156;28;20029;-73
2023/03/13 00:10:02;;;;;;;58.70;14.18;;;7.30;99.90;;;;;;5039956;28;20028;-73
2023/03/13 00:12:28;;;;;;;46.08;12.50;;;7.20;99.90;;;;;;5042228;28;20028;-73
2023/03/13 00:14:53;;;;;;;56.88;14.60;;;7.20;99.90;;;;;;5044529;28;20104;-74
2023/03/13 00:17:19;;;;;;;59.58;14.95;;;7.10;99.90;;;;;;5043351;28;20048;-73
2023/03/13 00:19:45;;;;;;;73.20;15.48;;;7.20;99.90;;;;;;5042656;28;20055;-74
2023/03/13 00:22:10;;;;;;;58.20;15.68;;;7.10;99.90;;;;;;5043503;28;20029;-72
2023/03/13 00:24:36;;;;;;;66.43;15.00;;;7.10;99.90;;;;;;5044709;28;20081;-73
2023/03/13 00:27:03;;;;;;;64.03;14.75;;;7.10;99.90;;;;;;5043032;28;20053;-73
2023/03/13 00:29:31;;;;;;;64.38;14.60;;;7.10;99.90;;;;;;5043048;28;20479;-73
2023/03/13 00:31:56;;;;;;;63.75;13.45;;;7.10;99.90;;;;;;5042537;28;20026;-74
2023/03/13 00:34:25;;;;;;;61.53;13.48;;;7.10;99.90;;;;;;5042712;28;20489;-73
2023/03/13 00:36:50;;;;;;;65.63;14.13;;;7.00;99.90;;;;;;5042839;28;20028;-74
2023/03/13 00:39:16;;;;;;;56.70;12.82;;;7.10;99.90;;;;;;5044213;28;20025;-74
2023/03/13 00:41:43;;;;;;;73.28;13.63;;;7.10;99.90;;;;;;5044233;28;20044;-73
2023/03/13 00:44:08;;;;;;;54.10;11.68;;;7.00;99.90;;;;;;5042885;28;20018;-73
2023/03/13 00:46:35;;;;;;;60.88;13.35;;;7.10;99.90;;;;;;5044287;28;20029;-72
2023/03/13 00:49:00;;;;;;;59.13;13.10;;;7.10;99.90;;;;;;5042123;28;20095;-73
2023/03/13 00:51:27;;;;;;;60.40;14.52;;;7.00;99.90;;;;;;5042790;28;20573;-74
2023/03/13 00:53:53;;;;;;;59.10;12.30;;;7.00;99.90;;;;;;5043941;28;20044;-73
2023/03/13 00:56:20;;;;;;;51.60;11.45;;;7.00;99.90;;;;;;5042556;28;20075;-74
2023/03/13 00:58:47;;;;;;;55.55;10.77;;;7.00;99.90;;;;;;5058706;28;20060;-74
2023/03/13 01:01:20;;;;;;;45.95;9.98;;;7.00;99.90;;;;;;5042249;28;20053;-74
2023/03/13 01:03:49;;;;;;;47.08;9.85;;;7.00;99.90;;;;;;5043227;28;20029;-72
2023/03/13 01:06:17;;;;;;;55.85;9.07;;;7.00;99.90;;;;;;5041518;28;20060;-73
2023/03/13 01:08:43;;;;;;;61.03;11.75;;;6.90;99.90;;;;;;5042039;28;20044;-73
2023/03/13 01:11:11;;;;;;;49.72;11.00;;;6.90;99.90;;;;;;5043720;28;20021;-73
2023/03/13 01:13:37;;;;;;;51.83;10.07;;;6.90;99.90;;;;;;5041500;28;20028;-73
2023/03/13 01:16:13;;;;;;;57.72;10.18;;;6.90;99.90;;;;;;5042645;28;20462;-73
2023/03/13 01:18:41;;;;;;;49.60;9.70;;;6.90;99.90;;;;;;5041846;28;20033;-76
2023/03/13 01:21:08;;;;;;;61.03;10.77;;;6.80;99.90;;;;;;5042933;28;20021;-76
2023/03/13 01:23:34;;;;;;;43.60;10.00;;;6.90;99.90;;;;;;5042051;28;20052;-74
2023/03/13 01:26:00;;;;;;;54.22;10.02;;;6.90;99.90;;;;;;5041296;28;20029;-75
2023/03/13 01:28:26;;;;;;;60.25;11.00;;;6.90;99.90;;;;;;5041868;28;20176;-76
2023/03/13 01:30:52;;;;;;;66.22;11.65;;;6.90;99.90;;;;;;5043214;28;20385;-75
2023/03/13 01:33:17;;;;;;;48.45;8.60;;;6.90;99.90;;;;;;5041753;28;20081;-73
2023/03/13 01:35:43;;;;;;;58.55;10.90;;;6.90;99.90;;;;;;5043217;28;20479;-75
2023/03/13 01:38:09;;;;;;;57.85;9.80;;;6.90;99.90;;;;;;5042599;28;20108;-74
2023/03/13 01:40:40;;;;;;;56.50;11.27;;;6.90;99.90;;;;;;5041927;28;20036;-72
2023/03/13 01:43:25;;;;;;;70.30;11.10;;;6.90;99.90;;;;;;5041719;28;20021;-75
2023/03/13 01:46:12;;;;;;;55.38;9.25;;;6.90;99.90;;;;;;5042786;28;20104;-75
2023/03/13 01:48:49;;;;;;;55.75;10.63;;;6.90;99.90;;;;;;5041754;28;20021;-73
2023/03/13 01:51:23;;;;;;;49.95;9.80;;;6.80;99.90;;;;;;5042439;28;20402;-74
2023/03/13 01:54:14;;;;;;;47.15;7.65;;;6.80;99.90;;;;;;5042578;28;20017;-73
2023/03/13 01:56:43;;;;;;;54.55;9.55;;;6.80;99.90;;;;;;5049958;28;20037;-75
2023/03/13 01:59:14;;;;;;;65.90;10.10;;;6.80;99.90;;;;;;5041210;28;20033;-73
2023/03/13 02:01:41;;;;;;;58.17;8.52;;;6.80;99.90;;;;;;5040982;28;20478;-75
2023/03/13 02:04:07;;;;;;;53.08;9.38;;;6.80;99.90;;;;;;5042266;28;20021;-75
2023/03/13 02:06:38;;;;;;;50.13;9.05;;;6.80;99.90;;;;;;5041401;28;20033;-74
2023/03/13 02:09:09;;;;;;;54.65;8.45;;;6.80;99.90;;;;;;5041383;28;20461;-76
2023/03/13 02:11:49;;;;;;;57.67;9.00;;;6.70;99.90;;;;;;5040339;28;20033;-77
2023/03/13 02:14:17;;;;;;;50.08;8.15;;;6.80;99.90;;;;;;5042242;28;20044;-75
2023/03/13 02:16:47;;;;;;;52.75;8.45;;;6.80;99.90;;;;;;5042218;28;20083;-75
2023/03/13 02:19:40;;;;;;;66.38;9.05;;;6.70;99.90;;;;;;5042233;28;20032;-75
2023/03/13 02:22:21;;;;;;;50.65;7.43;;;6.70;99.90;;;;;;5038225;28;20033;-75
2023/03/13 02:25:11;;;;;;;53.20;7.85;;;6.80;99.90;;;;;;5041884;28;20049;-77
2023/03/13 02:27:38;;;;;;;50.22;7.53;;;6.80;99.90;;;;;;5040274;28;20367;-76
2023/03/13 02:30:04;;;;;;;63.15;8.30;;;6.80;99.90;;;;;;5041906;28;20052;-73
2023/03/13 02:32:31;;;;;;;51.97;8.65;;;6.70;99.90;;;;;;5041740;28;20029;-73
2023/03/13 02:35:03;;;;;;;46.90;7.65;;;6.80;99.90;;;;;;5041291;28;21086;-75
2023/03/13 02:37:30;;;;;;;52.65;8.73;;;6.80;99.90;;;;;;5042172;28;20079;-73
2023/03/13 02:40:00;;;;;;;49.67;7.82;;;6.80;99.90;;;;;;5041871;28;20108;-76
2023/03/13 02:42:27;;;;;;;57.20;8.43;;;6.80;99.90;;;;;;5040370;28;20032;-73
2023/03/13 02:44:52;;;;;;;56.33;9.18;;;6.70;99.90;;;;;;5041149;28;20025;-75
2023/03/13 02:47:20;;;;;;;65.97;9.52;;;6.80;99.90;;;;;;5041409;28;20057;-75
2023/03/13 02:49:46;;;;;;;67.72;8.40;;;6.80;99.90;;;;;;5040545;28;20030;-74
2023/03/13 02:52:23;;;;;;;47.42;8.00;;;6.80;99.90;;;;;;5039520;28;20029;-74
2023/03/13 02:54:54;;;;;;;58.13;8.85;;;6.80;99.90;;;;;;5041132;28;20116;-76
2023/03/13 02:57:19;;;;;;;77.68;9.45;;;6.80;99.90;;;;;;5040051;28;20025;-74
2023/03/13 02:59:45;;;;;;;54.42;8.55;;;6.70;99.90;;;;;;5041548;28;20036;-74
2023/03/13 03:02:11;;;;;;;52.58;7.45;;;6.70;99.90;;;;;;5041756;28;20034;-73
2023/03/13 03:04:37;;;;;;;53.67;8.88;;;6.80;99.90;;;;;;5041747;28;20022;-74
2023/03/13 03:07:02;;;;;;;57.85;8.95;;;6.80;99.90;;;;;;5041825;28;20611;-74
2023/03/13 03:09:28;;;;;;;52.83;8.80;;;6.90;99.90;;;;;;5041390;28;20089;-74
2023/03/13 03:11:53;;;;;;;65.55;9.70;;;6.80;99.90;;;;;;5040422;28;20028;-75
2023/03/13 03:14:19;;;;;;;55.65;7.70;;;6.80;99.90;;;;;;5041218;28;20079;-75
2023/03/13 03:16:45;;;;;;;71.43;9.50;;;6.90;99.90;;;;;;5039798;28;20029;-73
2023/03/13 03:19:11;;;;;;;73.38;8.98;;;6.80;99.90;;;;;;5041737;28;20025;-75
2023/03/13 03:21:37;;;;;;;64.80;8.93;;;6.90;99.90;;;;;;5040887;28;20055;-74
2023/03/13 03:24:02;;;;;;;65.90;9.63;;;6.90;99.90;;;;;;5041610;28;20018;-73
2023/03/13 03:26:28;;;;;;;67.78;9.05;;;6.90;99.90;;;;;;5041286;28;20049;-74
2023/03/13 03:28:54;;;;;;;49.58;9.07;;;6.80;99.90;;;;;;5039431;28;20076;-74
2023/03/13 03:31:20;;;;;;;58.80;8.80;;;6.90;99.90;;;;;;5040163;28;20404;-73
2023/03/13 03:33:46;;;;;;;54.00;8.48;;;6.80;99.90;;;;;;5039645;28;20056;-75
2023/03/13 03:36:14;;;;;;;64.43;9.18;;;6.80;99.90;;;;;;5040350;28;20034;-76
2023/03/13 03:38:41;;;;;;;61.85;9.45;;;6.80;99.90;;;;;;5039852;28;20038;-75
2023/03/13 03:41:08;;;;;;;56.75;9.57;;;6.80;99.90;;;;;;5039404;28;20018;-76
2023/03/13 03:43:34;;;;;;;58.92;8.95;;;6.80;99.90;;;;;;5040103;28;20032;-75
2023/03/13 03:46:02;;;;;;;48.67;9.15;;;6.80;99.90;;;;;;5041274;28;20032;-74
2023/03/13 03:48:28;;;;;;;53.17;8.45;;;6.80;99.90;;;;;;5043985;28;20037;-76
2023/03/13 03:50:54;;;;;;;68.88;9.45;;;6.80;99.90;;;;;;5043641;28;20028;-75
2023/03/13 03:53:19;;;;;;;75.55;9.40;;;6.80;99.90;;;;;;5044712;28;20017;-76
2023/03/13 03:55:45;;;;;;;60.55;8.48;;;6.80;99.90;;;;;;5045009;28;20044;-75
2023/03/13 03:58:10;;;;;;;71.20;9.57;;;6.80;99.90;;;;;;5044946;28;20056;-75
2023/03/13 04:00:36;;;;;;;74.53;9.82;;;6.80;99.90;;;;;;5044119;28;20040;-77
2023/03/13 04:03:02;;;;;;;88.60;9.23;;;6.80;99.90;;;;;;5043754;28;20029;-74
2023/03/13 04:05:27;;;;;;;72.78;9.63;;;6.80;99.90;;;;;;5044566;28;20052;-75
2023/03/13 04:07:54;;;;;;;80.53;10.60;;;6.90;99.90;;;;;;5044633;28;20034;-76
2023/03/13 04:10:19;;;;;;;67.20;9.07;;;6.90;99.90;;;;;;5044578;28;20053;-76
2023/03/13 04:12:45;;;;;;;54.35;9.25;;;6.90;99.90;;;;;;5043473;28;20402;-74
2023/03/13 04:15:11;;;;;;;68.47;10.00;;;6.90;99.90;;;;;;5044637;28;20025;-74
2023/03/13 04:17:37;;;;;;;80.63;10.82;;;6.90;99.90;;;;;;5044715;28;20040;-75
2023/03/13 04:20:03;;;;;;;82.20;10.35;;;6.90;99.90;;;;;;5043085;28;20056;-74
2023/03/13 04:22:29;;;;;;;84.75;10.88;;;6.90;99.90;;;;;;5044549;28;20017;-76
2023/03/13 04:24:55;;;;;;;70.57;10.35;;;6.90;99.90;;;;;;5044354;28;20037;-75
2023/03/13 04:27:21;;;;;;;67.78;10.80;;;7.00;99.90;;;;;;5042712;28;20117;-75
2023/03/13 04:29:46;;;;;;;64.60;10.63;;;6.90;99.90;;;;;;5044342;28;20032;-75
2023/03/13 04:32:12;;;;;;;70.07;10.63;;;7.00;99.90;;;;;;5044344;28;20033;-74
2023/03/13 04:34:38;;;;;;;69.57;10.80;;;7.00;99.90;;;;;;5044586;28;20061;-75
2023/03/13 04:37:04;;;;;;;53.80;10.15;;;7.00;99.90;;;;;;5044504;28;20080;-73
2023/03/13 04:39:29;;;;;;;82.32;11.73;;;7.10;99.90;;;;;;5042977;28;20458;-79
2023/03/13 04:41:55;;;;;;;72.85;10.80;;;7.10;99.90;;;;;;5044605;28;20071;-73
2023/03/13 04:44:21;;;;;;;73.50;11.98;;;7.10;99.90;;;;;;5043831;28;20034;-75
2023/03/13 04:46:47;;;;;;;68.65;11.07;;;7.10;99.90;;;;;;5042318;28;20064;-76
2023/03/13 04:49:14;;;;;;;52.75;9.95;;;7.10;99.90;;;;;;5044048;28;20466;-75
2023/03/13 04:51:44;;;;;;;53.85;10.98;;;7.20;99.90;;;;;;5042872;28;20029;-72
2023/03/13 04:54:10;;;;;;;65.18;11.50;;;7.20;99.90;;;;;;5044193;28;20029;-76
2023/03/13 04:56:36;;;;;;;64.25;11.48;;;7.20;99.90;;;;;;5044009;28;20493;-76
2023/03/13 04:59:01;;;;;;;59.13;10.40;;;7.20;99.90;;;;;;5042497;28;20022;-75
2023/03/13 05:01:27;;;;;;;46.22;10.32;;;7.20;99.90;;;;;;5042494;28;20033;-76
2023/03/13 05:03:53;;;;;;;51.60;11.27;;;7.30;99.90;;;;;;5042406;28;20032;-72
2023/03/13 05:06:19;;;;;;;44.53;10.85;;;7.30;99.90;;;;;;5042130;28;20033;-72
2023/03/13 05:08:44;;;;;;;56.35;11.95;;;7.40;99.90;;;;;;5043654;28;20052;-75
2023/03/13 05:11:10;;;;;;;55.45;11.60;;;7.40;99.90;;;;;;5042289;28;20954;-75
2023/03/13 05:13:36;;;;;;;69.78;12.05;;;7.40;99.90;;;;;;5043885;28;20022;-75
2023/03/13 05:16:02;;;;;;;47.45;10.10;;;7.50;99.90;;;;;;5058758;28;20382;-74
2023/03/13 05:18:28;;;;;;;43.15;9.80;;;7.50;99.90;;;;;;5043393;28;20017;-74
2023/03/13 05:20:53;;;;;;;50.78;10.60;;;7.50;99.90;;;;;;5043585;28;20028;-76
2023/03/13 05:23:19;;;;;;;42.90;9.18;;;7.60;99.90;;;;;;5043210;28;20052;-74
2023/03/13 05:25:44;;;;;;;55.80;11.90;;;7.60;99.90;;;;;;5043436;28;20022;-76
2023/03/13 05:28:10;;;;;;;32.65;8.85;;;7.70;99.90;;;;;;5043238;28;20077;-77
2023/03/13 05:30:36;;;;;;;36.08;8.82;;;7.70;99.90;;;;;;5042416;28;20036;-75
2023/03/13 05:33:02;;;;;;;42.85;9.95;;;7.80;99.90;;;;;;5041781;28;20033;-75
2023/03/13 05:35:27;;;;;;;35.05;10.25;;;7.80;99.90;;;;;;5043193;28;20029;-75
2023/03/13 05:37:53;;;;;;;58.83;11.35;;;7.80;99.90;;;;;;5043046;28;20068;-74
2023/03/13 05:40:19;;;;;;;38.47;9.73;;;7.90;99.90;;;;;;5041869;28;20034;-74
2023/03/13 05:42:44;;;;;;;37.05;8.77;;;7.90;99.90;;;;;;5041656;28;20058;-76
2023/03/13 05:45:10;;;;;;;40.75;10.52;;;7.90;99.90;;;;;;5042492;28;20022;-73
2023/03/13 05:47:37;;;;;;;43.40;9.75;;;8.00;99.90;;;;;;5041852;28;20060;-75
2023/03/13 05:50:04;;;;;;;40.50;11.43;;;8.00;99.90;;;;;;5041432;28;20038;-73
2023/03/13 05:52:30;;;;;;;37.83;9.55;;;8.00;99.90;;;;;;5057562;28;20025;-75
2023/03/13 05:54:55;;;;;;;37.40;9.75;;;8.10;99.90;;;;;;5042654;28;20025;-75
2023/03/13 05:57:21;;;;;;;39.65;11.38;;;8.20;99.90;;;;;;5041362;28;20029;-74
2023/03/13 05:59:47;;;;;;;31.00;9.45;;;8.20;99.90;;;;;;5042883;28;20033;-75
2023/03/13 06:02:12;;;;;;;45.83;11.95;;;8.20;99.90;;;;;;5042935;28;20033;-75
2023/03/13 06:04:38;;;;;;;46.47;13.85;;;8.30;99.90;;;;;;5042839;28;20474;-77
2023/03/13 06:07:04;;;;;;;39.28;12.18;;;8.30;99.90;;;;;;5041667;28;20083;-75
2023/03/13 06:09:29;;;;;;;45.53;14.00;;;8.30;99.90;;;;;;5039641;28;20026;-74
2023/03/13 06:11:55;;;;;;;43.00;14.18;;;8.40;99.90;;;;;;5042203;28;20029;-77
2023/03/13 06:14:21;;;;;;;45.75;14.50;;;8.40;99.90;;;;;;5041914;28;20021;-73
2023/03/13 06:16:46;;;;;;;45.65;14.38;;;8.40;99.90;;;;;;5041038;28;20053;-75
2023/03/13 06:19:12;;;;;;;62.40;17.13;;;8.50;99.90;;;;;;5040944;28;20144;-77
2023/03/13 06:21:38;;;;;;;52.08;16.92;;;8.60;99.90;;;;;;5040430;28;20025;-75
2023/03/13 06:24:04;;;;;;;36.80;11.80;;;8.60;99.90;;;;;;5040863;28;20021;-75
2023/03/13 06:26:29;;;;;;;60.15;17.65;;;8.60;99.90;;;;;;5042259;28;20041;-74
2023/03/13 06:28:55;;;;;;;52.67;16.98;;;8.70;99.90;;;;;;5042666;28;20096;-75
2023/03/13 06:31:20;;;;;;;58.97;18.17;;;8.70;99.90;;;;;;5042479;28;20076;-76
2023/03/13 06:33:47;;;;;;;67.47;19.23;;;8.70;99.90;;;;;;5040840;28;20032;-76
2023/03/13 06:36:13;;;;;;;64.63;18.27;;;8.80;99.90;;;;;;5042267;28;20870;-77
2023/03/13 06:38:38;;;;;;;63.40;19.25;;;8.80;99.90;;;;;;5038507;28;20029;-73
2023/03/13 06:41:04;;;;;;;64.80;19.92;;;8.80;99.90;;;;;;5041981;28;20017;-76
2023/03/13 06:43:30;;;;;;;73.57;21.55;;;8.80;99.90;;;;;;5040128;28;20022;-76
2023/03/13 06:45:55;;;;;;;67.63;20.75;;;9.00;99.90;;;;;;5041358;28;20084;-73
2023/03/13 06:48:22;;;;;;;71.97;19.65;;;8.90;99.90;;;;;;5041841;28;20037;-73
2023/03/13 06:50:48;;;;;;;62.95;20.05;;;9.00;99.90;;;;;;5040072;28;20094;-74
2023/03/13 06:53:16;;;;;;;85.78;24.13;;;9.00;99.90;;;;;;5041898;28;20021;-74
2023/03/13 06:55:42;;;;;;;65.13;21.48;;;9.00;99.90;;;;;;5041881;28;20025;-74
2023/03/13 06:58:08;;;;;;;83.13;24.52;;;9.10;99.90;;;;;;5039177;28;20078;-74
2023/03/13 07:00:34;;;;;;;66.88;22.38;;;9.10;99.90;;;;;;5031331;28;20232;-74
2023/03/13 07:03:00;;;;;;;66.47;22.08;;;9.20;99.90;;;;;;5033627;28;20032;-71
2023/03/13 07:05:25;;;;;;;64.57;22.05;;;9.20;99.90;;;;;;5031331;28;20064;-75
2023/03/13 07:07:51;;;;;;;69.22;22.00;;;9.30;99.90;;;;;;5029201;28;20041;-73
2023/03/13 07:10:17;;;;;;;50.67;18.45;;;9.40;99.90;;;;;;5041084;28;20435;-73
2023/03/13 07:12:43;;;;;;;52.33;18.60;;;9.40;99.90;;;;;;5036385;28;20026;-73
2023/03/13 07:15:12;;;;;;;36.92;15.82;;;9.60;99.90;;;;;;5056374;28;20037;-74
2023/03/13 07:17:38;;;;;;;46.25;17.80;;;9.60;99.90;;;;;;5038626;28;20029;-75
2023/03/13 07:20:05;;;;;;;32.50;13.65;;;9.70;99.90;;;;;;5039161;28;20021;-73
2023/03/13 07:22:31;;;;;;;31.92;11.73;;;9.70;99.90;;;;;;5041022;28;20029;-75
2023/03/13 07:24:56;;;;;;;36.33;14.30;;;9.80;99.90;;;;;;5039042;28;20633;-73
2023/03/13 07:27:22;;;;;;;27.75;12.57;;;9.90;99.90;;;;;;5040341;28;20061;-74
2023/03/13 07:29:48;;;;;;;29.48;12.90;;;9.90;99.90;;;;;;5040288;28;20052;-72
2023/03/13 07:32:14;;;;;;;33.70;11.88;;;10.00;99.90;;;;;;5039139;28;20022;-73
2023/03/13 07:34:40;;;;;;;30.33;12.10;;;10.00;99.90;;;;;;5036756;28;20037;-75
2023/03/13 07:37:05;;;;;;;24.70;10.43;;;10.10;99.90;;;;;;5041363;28;20037;-72
2023/03/13 07:39:31;;;;;;;36.50;12.95;;;10.10;99.90;;;;;;5040515;28;20048;-72
2023/03/13 07:41:56;;;;;;;28.42;11.85;;;10.20;99.90;;;;;;5035429;28;20082;-74
2023/03/13 07:44:22;;;;;;;23.70;10.50;;;10.20;99.90;;;;;;5039689;28;20438;-74
2023/03/13 07:46:49;;;;;;;19.83;9.27;;;10.30;99.90;;;;;;5040273;28;20092;-73
2023/03/13 07:49:14;;;;;;;23.08;10.23;;;10.30;99.90;;;;;;5036860;28;20029;-74
2023/03/13 07:51:40;;;;;;;24.75;11.70;;;10.40;99.90;;;;;;5039426;28;20033;-72
2023/03/13 07:54:07;;;;;;;24.63;11.00;;;10.50;99.90;;;;;;5040461;28;20052;-72
2023/03/13 07:56:32;;;;;;;29.95;11.90;;;10.50;99.90;;;;;;5040113;28;20021;-71
2023/03/13 07:58:58;;;;;;;27.60;11.77;;;10.50;99.90;;;;;;5039769;28;20014;-75
2023/03/13 08:01:25;;;;;;;25.40;10.30;;;10.60;99.90;;;;;;5040830;28;20030;-73
2023/03/13 08:03:54;;;;;;;21.23;9.38;;;10.60;99.90;;;;;;5038794;28;20033;-72
2023/03/13 08:06:24;;;;;;;22.52;11.55;;;10.60;99.90;;;;;;5040853;28;20387;-74
2023/03/13 08:08:51;;;;;;;21.00;10.70;;;10.70;99.90;;;;;;5055914;28;20048;-72
2023/03/13 08:11:20;;;;;;;30.00;12.85;;;10.70;99.90;;;;;;5040731;28;20033;-74
2023/03/13 08:13:46;;;;;;;26.40;10.77;;;10.80;99.90;;;;;;5054787;28;20029;-70
2023/03/13 08:16:15;;;;;;;28.70;12.90;;;10.80;99.90;;;;;;5038723;28;20035;-81
2023/03/13 08:18:43;;;;;;;24.17;10.20;;;10.80;99.90;;;;;;5040494;28;20029;-75
2023/03/13 08:21:14;;;;;;;23.63;11.82;;;10.80;99.90;;;;;;5041049;28;20036;-75
2023/03/13 08:23:40;;;;;;;28.00;12.88;;;10.90;99.90;;;;;;5040652;28;20099;-77
2023/03/13 08:26:14;;;;;;;33.17;12.30;;;10.90;99.90;;;;;;5039129;28;20026;-76
2023/03/13 08:28:41;;;;;;;29.85;12.43;;;10.90;99.90;;;;;;5035196;28;20054;-73
2023/03/13 08:31:08;;;;;;;29.65;12.10;;;10.90;99.90;;;;;;5037681;28;20029;-76
2023/03/13 08:33:34;;;;;;;37.72;12.55;;;11.00;99.90;;;;;;5056774;28;20049;-75
2023/03/13 08:36:14;;;;;;;30.00;11.73;;;10.90;99.90;;;;;;5042932;28;20021;-76
2023/03/13 08:38:43;;;;;;;26.33;11.45;;;11.00;99.90;;;;;;5043082;28;20052;-75
2023/03/13 08:41:10;;;;;;;29.15;10.43;;;11.00;99.90;;;;;;5042906;28;20029;-73
2023/03/13 08:43:36;;;;;;;30.42;11.63;;;11.00;99.90;;;;;;5044296;28;20061;-75
2023/03/13 08:46:03;;;;;;;33.58;12.50;;;11.00;99.90;;;;;;5043705;28;20022;-75
2023/03/13 08:48:28;;;;;;;30.83;12.18;;;11.00;99.90;;;;;;5042433;28;20029;-72
2023/03/13 08:51:13;;;;;;;29.20;13.10;;;11.00;99.90;;;;;;5044097;28;20044;-75
2023/03/13 08:53:39;;;;;;;;;;;11.00;99.90;;;;;;5044827;28;20029;-77
2023/03/13 08:56:05;;;;;;;26.23;10.88;;;10.90;99.90;;;;;;5044558;28;20294;-75
2023/03/13 08:58:31;;;;;;;29.85;12.35;;;11.00;99.90;;;;;;5040953;28;20032;-76
2023/03/13 09:01:12;;;;;;;29.83;13.30;;;11.10;99.90;;;;;;5040041;28;20038;-77
2023/03/13 09:03:39;;;;;;;31.90;13.60;;;11.10;99.90;;;;;;5042015;28;20048;-79
2023/03/13 09:06:05;;;;;;;28.50;13.43;;;11.10;99.90;;;;;;5042181;28;20029;-78
2023/03/13 09:08:33;;;;;;;20.27;10.25;;;11.10;99.90;;;;;;5041811;28;20126;-73
2023/03/13 09:11:04;;;;;;;30.80;12.65;;;11.10;99.90;;;;;;5043647;28;20026;-75
2023/03/13 09:13:32;;;;;;;29.83;10.98;;;11.20;99.90;;;;;;5038341;28;20484;-74
2023/03/13 09:16:04;;;;;;;30.95;12.95;;;11.20;99.90;;;;;;5037750;28;20033;-77
2023/03/13 09:18:33;;;;;;;28.15;13.38;;;11.30;99.90;;;;;;5039855;28;20038;-77
2023/03/13 09:20:59;;;;;;;27.90;12.20;;;11.30;99.90;;;;;;5041799;28;20072;-73
2023/03/13 09:23:25;;;;;;;33.28;12.48;;;11.30;99.90;;;;;;5038822;28;20021;-74
2023/03/13 09:25:55;;;;;;;27.90;11.77;;;11.40;99.90;;;;;;5041594;28;20114;-78
2023/03/13 09:28:23;;;;;;;24.67;9.32;;;11.40;99.90;;;;;;5057890;28;20103;-75
2023/03/13 09:30:48;;;;;;;23.42;11.60;;;11.40;99.90;;;;;;5041248;28;20515;-77
2023/03/13 09:33:15;;;;;;;23.00;10.90;;;11.40;99.90;;;;;;5042506;28;20083;-73
2023/03/13 09:35:41;;;;;;;22.83;11.35;;;11.40;99.90;;;;;;5043553;28;20021;-75
2023/03/13 09:38:07;;;;;;;24.30;10.32;;;11.40;99.90;;;;;;5043851;28;20021;-74
2023/03/13 09:40:45;;;;;;;21.88;11.70;;;11.40;99.90;;;;;;5041114;28;20044;-73
2023/03/13 09:43:43;;;;;;;27.40;11.70;;;11.40;99.90;;;;;;5041095;28;20125;-77
2023/03/13 09:46:17;;;;;;;23.98;10.88;;;11.40;99.90;;;;;;5041326;28;20462;-73
2023/03/13 09:48:47;;;;;;;29.52;11.65;;;11.40;99.90;;;;;;5041733;28;20061;-74
2023/03/13 09:51:35;;;;;;;21.17;11.35;;;11.40;99.90;;;;;;5043219;28;20076;-74
2023/03/13 09:54:04;;;;;;;24.88;10.40;;;11.40;99.90;;;;;;5034634;28;20029;-74
2023/03/13 09:56:38;;;;;;;20.92;9.75;;;11.70;99.90;;;;;;5040221;28;20081;-76
2023/03/13 09:59:16;;;;;;;21.67;10.40;;;11.90;99.90;;;;;;5036175;28;20850;-74
2023/03/13 10:01:44;;;;;;;18.73;8.90;;;12.10;99.90;;;;;;5040130;28;20033;-73
2023/03/13 10:04:21;;;;;;;17.05;9.48;;;12.30;99.90;;;;;;5040420;28;20089;-72
2023/03/13 10:06:48;;;;;;;22.60;8.82;;;12.40;99.90;;;;;;5041309;28;20120;-74
2023/03/13 10:09:28;;;;;;;16.85;7.88;;;12.50;99.90;;;;;;5041342;28;20025;-74
2023/03/13 10:12:10;;;;;;;13.10;7.22;;;12.60;99.90;;;;;;5040428;28;20126;-70
2023/03/13 10:14:44;;;;;;;11.40;5.10;;;12.60;99.90;;;;;;5040360;28;21264;-73
2023/03/13 10:17:37;;;;;;;15.52;6.57;;;12.60;99.90;;;;;;5041526;28;20033;-71
2023/03/13 10:20:34;;;;;;;9.98;5.65;;;12.60;99.90;;;;;;5034491;28;20116;-73
2023/03/13 10:23:02;;;;;;;12.38;5.95;;;12.60;99.90;;;;;;5040663;28;20802;-73
2023/03/13 10:25:38;;;;;;;10.27;4.93;;;12.60;99.90;;;;;;5041952;28;20030;-73
2023/03/13 10:28:04;;;;;;;13.15;5.57;;;12.60;99.90;;;;;;5040579;28;20413;-74
2023/03/13 10:30:34;;;;;;;8.40;4.30;;;12.50;99.90;;;;;;5039780;28;20040;-72
2023/03/13 10:33:06;;;;;;;9.38;4.47;;;12.50;99.90;;;;;;5039223;28;20029;-70
2023/03/13 10:35:35;;;;;;;15.45;4.72;;;12.60;99.90;;;;;;5039598;28;20474;-73
2023/03/13 10:38:20;;;;;;;7.97;3.40;;;12.70;99.90;;;;;;5035475;28;20060;-72
2023/03/13 10:40:57;;;;;;;17.92;7.90;;;12.80;99.90;;;;;;5037814;28;20445;-74
2023/03/13 10:43:25;;;;;;;8.65;4.57;;;13.20;99.90;;;;;;5038879;28;20139;-70
2023/03/13 10:45:51;;;;;;;18.98;5.97;;;13.40;99.90;;;;;;5040541;28;20029;-69
2023/03/13 10:48:26;;;;;;;10.43;3.40;;;13.60;99.90;;;;;;5038702;28;20069;-72
2023/03/13 10:50:53;;;;;;;;;;;13.60;99.90;;;;;;5040112;28;20064;-71
2023/03/13 10:53:33;;;;;;;10.80;3.83;;;13.80;99.90;;;;;;5039426;28;19909;-72
2023/03/13 10:56:11;;;;;;;7.70;3.28;;;13.90;99.90;;;;;;5040195;28;20604;-70
2023/03/13 10:58:43;;;;;;;7.10;2.63;;;13.80;99.90;;;;;;5041911;28;20467;-75
2023/03/13 11:01:23;;;;;;;7.68;3.63;;;13.60;99.90;;;;;;5038809;28;20490;-71
2023/03/13 11:03:50;;;;;;;9.35;3.47;;;13.50;99.90;;;;;;5040822;28;20084;-72
2023/03/13 11:06:34;;;;;;;6.97;2.95;;;13.50;99.90;;;;;;5038702;28;20026;-73
2023/03/13 11:09:15;;;;;;;6.60;3.33;;;13.60;99.90;;;;;;5040788;28;20026;-71
2023/03/13 11:11:53;;;;;;;6.90;3.35;;;13.60;99.90;;;;;;5038529;28;20284;-71
2023/03/13 11:14:24;;;;;;;9.18;3.75;;;13.60;99.90;;;;;;5031869;28;20132;-72
2023/03/13 11:16:55;;;;;;;8.20;3.67;;;13.70;99.90;;;;;;5039287;28;20052;-71
2023/03/13 11:19:47;;;;;;;13.18;5.53;;;13.80;99.90;;;;;;5038564;28;20036;-71
2023/03/13 11:22:13;;;;;;;8.25;3.40;;;14.10;99.90;;;;;;5046384;28;20053;-73
2023/03/13 11:24:59;;;;;;;9.05;3.25;;;14.60;99.90;;;;;;5041737;28;20020;-72
2023/03/13 11:27:57;;;;;;;4.82;2.28;;;15.10;99.90;;;;;;5040943;28;20049;-73
2023/03/13 11:30:57;;;;;;;5.85;2.88;;;15.20;99.90;;;;;;5041433;28;20026;-72
2023/03/13 11:33:57;;;;;;;6.22;2.85;;;15.20;99.90;;;;;;5038220;28;20064;-74
2023/03/13 11:36:29;;;;;;;8.45;2.50;;;15.10;99.90;;;;;;5040472;28;20026;-72
2023/03/13 11:39:21;;;;;;;7.43;2.42;;;15.10;99.90;;;;;;5042787;28;20068;-70
2023/03/13 11:42:18;;;;;;;4.93;2.50;;;15.00;99.90;;;;;;5044815;28;20030;-69
2023/03/13 11:44:43;;;;;;;8.15;3.10;;;14.90;99.90;;;;;;5040424;28;20037;-72
2023/03/13 11:47:35;;;;;;;5.55;2.65;;;14.80;99.90;;;;;;5040383;28;20037;-72
2023/03/13 11:50:38;;;;;;;9.68;3.10;;;14.60;99.90;;;;;;5040826;28;20524;-71
2023/03/13 11:53:12;;;;;;;7.90;2.60;;;14.70;99.90;;;;;;5005401;28;20069;-71
2023/03/13 11:56:02;;;;;;;7.38;3.03;;;14.80;99.90;;;;;;5042134;28;20074;-73
2023/03/13 11:58:33;;;;;;;7.43;2.50;;;15.20;99.90;;;;;;5040632;28;20025;-73
2023/03/13 12:01:04;;;;;;;6.82;2.55;;;15.50;99.90;;;;;;5040538;28;20029;-71
2023/03/13 12:03:36;;;;;;;4.38;2.00;;;15.60;99.90;;;;;;5039996;28;20139;-70
2023/03/13 12:06:04;;;;;;;5.07;1.90;;;15.60;99.90;;;;;;5041591;28;20384;-71
2023/03/13 12:08:40;;;;;;;6.90;1.80;;;15.80;99.90;;;;;;5043937;28;20021;-69
2023/03/13 12:11:16;;;;;;;5.07;2.05;;;15.70;99.90;;;;;;5046206;28;20021;-70
2023/03/13 12:13:50;;;;;;;8.18;1.98;;;15.60;99.90;;;;;;5047476;28;20117;-73
2023/03/13 12:16:24;;;;;;;7.38;1.95;;;15.60;99.90;;;;;;5045190;28;20513;-72
2023/03/13 12:18:51;;;;;;;6.70;2.00;;;15.50;99.90;;;;;;5040498;28;20120;-72
2023/03/13 12:21:28;;;;;;;6.85;1.67;;;15.50;99.90;;;;;;5042968;28;20260;-72
2023/03/13 12:24:20;;;;;;;4.65;1.90;;;15.70;99.90;;;;;;5042713;28;20025;-73
2023/03/13 12:26:48;;;;;;;4.30;1.65;;;15.70;99.90;;;;;;5041954;28;20045;-72
2023/03/13 12:29:26;;;;;;;7.70;1.80;;;15.70;99.90;;;;;;5042948;28;20093;-72
2023/03/13 12:32:03;;;;;;;11.88;2.80;;;15.80;99.90;;;;;;5043296;28;20037;-71
2023/03/13 12:34:54;;;;;;;8.77;2.35;;;15.90;99.90;;;;;;5043554;28;20937;-68
2023/03/13 12:37:52;;;;;;;6.25;1.73;;;16.10;99.90;;;;;;5041024;28;20116;-71
2023/03/13 12:40:55;;;;;;;8.45;1.92;;;16.30;99.90;;;;;;5041727;28;20465;-72
2023/03/13 12:43:29;;;;;;;7.20;2.20;;;16.20;99.90;;;;;;5041620;28;20060;-72
2023/03/13 12:45:58;;;;;;;5.05;1.85;;;16.10;99.90;;;;;;5042787;28;20034;-72
2023/03/13 12:48:30;;;;;;;5.63;1.73;;;16.10;99.90;;;;;;5039724;28;20038;-72
2023/03/13 12:51:13;;;;;;;5.10;1.63;;;16.00;99.90;;;;;;5043645;28;20029;-71
2023/03/13 12:54:08;;;;;;;3.33;1.75;;;16.20;99.90;;;;;;5044472;28;20025;-72